createdAt,value
2023-07-03T00:00:25.042Z,36.37
2023-07-03T00:01:25.045Z,36.36
2023-07-03T00:02:25.076Z,36.34
2023-07-03T00:03:25.044Z,36.36
2023-07-03T00:04:25.099Z,36.37
2023-07-03T00:05:25.163Z,36.34
2023-07-03T00:06:24.999Z,36.33
2023-07-03T00:07:24.983Z,36.37
2023-07-03T00:08:24.973Z,36.38
2023-07-03T00:09:24.972Z,36.33
2023-07-03T00:10:24.993Z,36.33
2023-07-03T00:11:24.966Z,36.36
2023-07-03T00:12:24.976Z,36.33
2023-07-03T00:13:24.942Z,36.35
2023-07-03T00:14:24.951Z,36.36
2023-07-03T00:15:24.982Z,36.30
2023-07-03T00:16:24.955Z,36.37
2023-07-03T00:17:24.979Z,36.41
2023-07-03T00:18:24.951Z,36.38
2023-07-03T00:19:24.915Z,36.37
2023-07-03T00:20:24.951Z,36.34
2023-07-03T00:21:24.905Z,36.37
2023-07-03T00:22:24.891Z,36.37
2023-07-03T00:23:24.901Z,36.38
2023-07-03T00:24:24.889Z,36.35
2023-07-03T00:25:24.884Z,36.38
2023-07-03T00:26:24.890Z,36.39
2023-07-03T00:27:24.874Z,36.42
2023-07-03T00:28:24.885Z,36.37
2023-07-03T00:29:24.853Z,36.34
2023-07-03T00:30:24.891Z,36.37
2023-07-03T00:31:24.887Z,36.33
2023-07-03T00:32:24.885Z,36.37
2023-07-03T00:33:24.836Z,36.37
2023-07-03T00:34:24.854Z,36.33
2023-07-03T00:35:24.849Z,36.37
2023-07-03T00:36:24.796Z,36.38
2023-07-03T00:37:24.807Z,36.39
2023-07-03T00:38:24.790Z,36.37
2023-07-03T00:39:24.778Z,36.33
2023-07-03T00:40:24.795Z,36.35
2023-07-03T00:41:24.769Z,36.37
2023-07-03T00:42:24.751Z,36.42
2023-07-03T00:43:24.753Z,36.34
2023-07-03T00:44:24.798Z,36.37
2023-07-03T00:45:24.753Z,36.38
2023-07-03T00:46:24.763Z,36.38
2023-07-03T00:47:24.758Z,36.35
2023-07-03T00:48:24.729Z,36.36
2023-07-03T00:49:24.715Z,36.35
2023-07-03T00:50:24.724Z,36.38
2023-07-03T00:51:24.694Z,36.31
2023-07-03T00:52:24.699Z,36.37
2023-07-03T00:53:24.698Z,36.36
2023-07-03T00:54:24.667Z,36.39
2023-07-03T00:55:24.665Z,36.38
2023-07-03T00:56:24.667Z,36.41
2023-07-03T00:57:24.686Z,36.34
2023-07-03T00:58:24.661Z,36.36
2023-07-03T00:59:24.636Z,36.35
2023-07-03T01:01:31.701Z,36.37
2023-07-03T01:02:24.648Z,36.35
2023-07-03T01:03:25.093Z,36.38
2023-07-03T01:04:24.687Z,36.38
2023-07-03T01:05:24.704Z,36.42
2023-07-03T01:06:24.605Z,36.38
2023-07-03T01:07:24.576Z,36.41
2023-07-03T01:08:24.610Z,36.40
2023-07-03T01:09:24.580Z,36.39
2023-07-03T01:10:24.564Z,36.43
2023-07-03T01:11:24.609Z,36.42
2023-07-03T01:12:24.549Z,36.44
2023-07-03T01:13:24.544Z,36.43
2023-07-03T01:14:24.546Z,36.38
2023-07-03T01:15:24.560Z,36.41
2023-07-03T01:16:24.525Z,36.43
2023-07-03T01:17:24.519Z,36.43
2023-07-03T01:18:24.547Z,36.40
2023-07-03T01:19:24.506Z,36.42
2023-07-03T01:20:24.523Z,36.36
2023-07-03T01:21:24.501Z,36.42
2023-07-03T01:22:24.492Z,36.42
2023-07-03T01:23:24.519Z,36.42
2023-07-03T01:24:24.471Z,36.43
2023-07-03T01:25:24.473Z,36.39
2023-07-03T01:26:24.463Z,36.42
2023-07-03T01:27:24.548Z,36.43
2023-07-03T01:28:24.509Z,36.38
2023-07-03T01:29:24.450Z,36.42
2023-07-03T01:30:24.433Z,36.42
2023-07-03T01:31:24.453Z,36.42
2023-07-03T01:32:24.430Z,36.42
2023-07-03T01:33:24.427Z,36.42
2023-07-03T01:34:24.407Z,36.42
2023-07-03T01:35:24.405Z,36.39
2023-07-03T01:36:24.397Z,36.42
2023-07-03T01:37:24.399Z,36.39
2023-07-03T01:38:24.387Z,36.38
2023-07-03T01:39:24.371Z,36.38
2023-07-03T01:40:24.375Z,36.42
2023-07-03T01:41:24.383Z,36.38
2023-07-03T01:42:24.347Z,36.39
2023-07-03T01:43:24.355Z,36.42
2023-07-03T01:44:24.342Z,36.38
2023-07-03T01:45:24.357Z,36.40
2023-07-03T01:46:24.366Z,36.40
2023-07-03T01:47:24.357Z,36.39
2023-07-03T01:48:24.344Z,36.43
2023-07-03T01:49:24.304Z,36.36
2023-07-03T01:50:24.355Z,36.43
2023-07-03T01:51:24.290Z,36.40
2023-07-03T01:52:24.321Z,36.42
2023-07-03T01:53:24.288Z,36.42
2023-07-03T01:54:24.267Z,36.39
2023-07-03T01:55:24.272Z,36.44
2023-07-03T01:56:24.279Z,36.44
2023-07-03T01:57:24.252Z,36.44
2023-07-03T01:58:24.286Z,36.42
2023-07-03T01:59:24.238Z,36.38
2023-07-03T02:00:24.246Z,36.43
2023-07-03T02:01:24.286Z,36.40
2023-07-03T02:02:24.303Z,36.45
2023-07-03T02:03:24.286Z,36.41
2023-07-03T02:04:24.274Z,36.45
2023-07-03T02:05:24.206Z,36.45
2023-07-03T02:06:24.234Z,36.41
2023-07-03T02:07:24.179Z,36.42
2023-07-03T02:08:24.166Z,36.42
2023-07-03T02:09:24.158Z,36.42
2023-07-03T02:10:24.160Z,36.44
2023-07-03T02:11:24.160Z,36.40
2023-07-03T02:12:24.146Z,36.41
2023-07-03T02:13:24.146Z,36.42
2023-07-03T02:14:24.129Z,36.44
2023-07-03T02:15:24.119Z,36.40
2023-07-03T02:16:24.181Z,36.40
2023-07-03T02:17:24.145Z,36.40
2023-07-03T02:18:24.098Z,36.44
2023-07-03T02:19:24.088Z,36.44
2023-07-03T02:20:24.085Z,36.42
2023-07-03T02:21:24.089Z,36.45
2023-07-03T02:22:24.116Z,36.42
2023-07-03T02:23:24.133Z,36.47
2023-07-03T02:24:24.139Z,36.47
2023-07-03T02:25:24.131Z,36.41
2023-07-03T02:26:24.182Z,36.44
2023-07-03T02:27:24.157Z,36.44
2023-07-03T02:28:24.173Z,36.42
2023-07-03T02:29:24.176Z,36.44
2023-07-03T02:30:24.183Z,36.44
2023-07-03T02:31:24.228Z,36.44
2023-07-03T02:32:24.245Z,36.47
2023-07-03T02:33:24.214Z,36.45
2023-07-03T02:34:24.229Z,36.43
2023-07-03T02:35:24.249Z,36.42
2023-07-03T02:36:24.249Z,36.41
2023-07-03T02:37:24.279Z,36.41
2023-07-03T02:38:24.283Z,36.42
2023-07-03T02:39:24.308Z,36.45
2023-07-03T02:40:24.357Z,36.44
2023-07-03T02:41:24.331Z,36.41
2023-07-03T02:42:24.367Z,36.48
2023-07-03T02:43:24.351Z,36.43
2023-07-03T02:44:24.368Z,36.46
2023-07-03T02:45:24.411Z,36.45
2023-07-03T02:46:24.368Z,36.42
2023-07-03T02:47:24.455Z,36.45
2023-07-03T02:48:24.390Z,36.45
2023-07-03T02:49:24.445Z,36.42
2023-07-03T02:50:24.412Z,36.47
2023-07-03T02:51:24.411Z,36.46
2023-07-03T02:52:24.429Z,36.48
2023-07-03T02:53:24.433Z,36.46
2023-07-03T02:54:24.442Z,36.45
2023-07-03T02:55:24.469Z,36.45
2023-07-03T02:56:24.500Z,36.46
2023-07-03T02:57:24.495Z,36.43
2023-07-03T02:58:24.487Z,36.42
2023-07-03T02:59:24.516Z,36.47
2023-07-03T03:00:24.571Z,36.49
2023-07-03T03:01:24.578Z,36.43
2023-07-03T03:02:24.561Z,36.48
2023-07-03T03:03:24.778Z,36.45
2023-07-03T03:04:24.615Z,36.46
2023-07-03T03:05:24.567Z,36.45
2023-07-03T03:06:24.562Z,36.49
2023-07-03T03:07:24.566Z,36.45
2023-07-03T03:08:24.568Z,36.47
2023-07-03T03:09:24.677Z,36.50
2023-07-03T03:10:24.607Z,36.43
2023-07-03T03:11:24.601Z,36.45
2023-07-03T03:12:24.633Z,36.46
2023-07-03T03:13:24.611Z,36.46
2023-07-03T03:14:24.617Z,36.47
2023-07-03T03:15:24.643Z,36.46
2023-07-03T03:16:24.677Z,36.46
2023-07-03T03:17:24.672Z,36.45
2023-07-03T03:18:24.677Z,36.45
2023-07-03T03:19:24.661Z,36.43
2023-07-03T03:20:24.677Z,36.50
2023-07-03T03:21:24.748Z,36.48
2023-07-03T03:22:24.714Z,36.49
2023-07-03T03:23:24.740Z,36.46
2023-07-03T03:24:24.725Z,36.43
2023-07-03T03:25:24.766Z,36.48
2023-07-03T03:26:24.752Z,36.47
2023-07-03T03:27:24.758Z,36.43
2023-07-03T03:28:24.873Z,36.46
2023-07-03T03:29:24.791Z,36.47
2023-07-03T03:30:24.802Z,36.46
2023-07-03T03:31:24.864Z,36.46
2023-07-03T03:32:24.832Z,36.47
2023-07-03T03:33:24.824Z,36.46
2023-07-03T03:34:24.832Z,36.46
2023-07-03T03:35:24.852Z,36.46
2023-07-03T03:36:25.842Z,36.48
2023-07-03T03:37:24.840Z,36.45
2023-07-03T03:38:24.858Z,36.44
2023-07-03T03:39:24.892Z,36.45
2023-07-03T03:40:24.891Z,36.47
2023-07-03T03:41:24.893Z,36.49
2023-07-03T03:42:24.897Z,36.49
2023-07-03T03:43:24.920Z,36.42
2023-07-03T03:44:24.950Z,36.48
2023-07-03T03:45:24.928Z,36.47
2023-07-03T03:46:24.947Z,36.44
2023-07-03T03:47:25.000Z,36.44
2023-07-03T03:48:25.084Z,36.43
2023-07-03T03:49:24.980Z,36.45
2023-07-03T03:50:25.000Z,36.49
2023-07-03T03:51:24.991Z,36.47
2023-07-03T03:52:25.009Z,36.47
2023-07-03T03:53:25.024Z,36.46
2023-07-03T03:54:25.042Z,36.42
2023-07-03T03:55:25.026Z,36.49
2023-07-03T03:56:25.191Z,36.44
2023-07-03T03:57:25.184Z,36.42
2023-07-03T03:58:25.068Z,36.46
2023-07-03T03:59:25.067Z,36.44
2023-07-03T04:00:25.075Z,36.44
2023-07-03T04:01:25.154Z,36.47
2023-07-03T04:02:25.115Z,36.47
2023-07-03T04:03:25.133Z,36.43
2023-07-03T04:04:25.285Z,36.47
2023-07-03T04:05:25.102Z,36.49
2023-07-03T04:06:25.115Z,36.49
2023-07-03T04:07:25.138Z,36.44
2023-07-03T04:08:25.163Z,36.47
2023-07-03T04:09:25.133Z,36.46
2023-07-03T04:10:25.144Z,36.46
2023-07-03T04:11:25.155Z,36.49
2023-07-03T04:12:25.160Z,36.50
2023-07-03T04:13:25.204Z,36.46
2023-07-03T04:14:25.182Z,36.43
2023-07-03T04:15:25.182Z,36.46
2023-07-03T04:16:25.228Z,36.43
2023-07-03T04:17:25.232Z,36.43
2023-07-03T04:18:25.230Z,36.47
2023-07-03T04:19:25.246Z,36.47
2023-07-03T04:20:25.279Z,36.47
2023-07-03T04:21:25.300Z,36.44
2023-07-03T04:22:25.263Z,36.44
2023-07-03T04:23:25.266Z,36.45
2023-07-03T04:24:25.288Z,36.49
2023-07-03T04:25:25.295Z,36.43
2023-07-03T04:26:25.308Z,36.45
2023-07-03T04:27:25.315Z,36.47
2023-07-03T04:28:25.316Z,36.43
2023-07-03T04:29:25.352Z,36.45
2023-07-03T04:30:25.338Z,36.49
2023-07-03T04:31:25.390Z,36.43
2023-07-03T04:32:25.425Z,36.46
2023-07-03T04:33:25.400Z,36.43
2023-07-03T04:34:25.397Z,36.42
2023-07-03T04:35:25.402Z,36.43
2023-07-03T04:36:25.410Z,36.42
2023-07-03T04:37:25.416Z,36.44
2023-07-03T04:38:25.574Z,36.44
2023-07-03T04:39:25.455Z,36.44
2023-07-03T04:40:25.459Z,36.43
2023-07-03T04:41:25.500Z,36.42
2023-07-03T04:42:25.522Z,36.46
2023-07-03T04:43:25.537Z,36.47
2023-07-03T04:44:25.537Z,36.46
2023-07-03T04:45:25.502Z,36.42
2023-07-03T04:46:25.598Z,36.42
2023-07-03T04:47:25.555Z,36.42
2023-07-03T04:48:25.536Z,36.44
2023-07-03T04:49:25.544Z,36.42
2023-07-03T04:50:25.571Z,36.41
2023-07-03T04:51:25.570Z,36.47
2023-07-03T04:52:25.572Z,36.43
2023-07-03T04:53:25.583Z,36.43
2023-07-03T04:54:25.601Z,36.42
2023-07-03T04:55:25.623Z,36.43
2023-07-03T04:56:25.635Z,36.47
2023-07-03T04:57:25.628Z,36.46
2023-07-03T04:58:25.661Z,36.42
2023-07-03T04:59:25.658Z,36.43
2023-07-03T05:00:25.662Z,36.42
2023-07-03T05:01:25.705Z,36.41
2023-07-03T05:02:25.731Z,36.43
2023-07-03T05:03:25.716Z,36.46
2023-07-03T05:04:25.758Z,36.42
2023-07-03T05:05:25.725Z,36.37
2023-07-03T05:06:25.769Z,36.41
2023-07-03T05:07:25.739Z,36.46
2023-07-03T05:08:25.762Z,36.42
2023-07-03T05:09:25.756Z,36.46
2023-07-03T05:10:25.782Z,36.41
2023-07-03T05:11:25.782Z,36.38
2023-07-03T05:12:25.842Z,36.39
2023-07-03T05:13:25.807Z,36.42
2023-07-03T05:14:25.802Z,36.39
2023-07-03T05:15:25.856Z,36.38
2023-07-03T05:16:25.965Z,36.38
2023-07-03T05:17:25.945Z,36.40
2023-07-03T05:18:25.932Z,36.42
2023-07-03T05:19:25.911Z,36.37
2023-07-03T05:20:25.930Z,36.43
2023-07-03T05:21:25.923Z,36.36
2023-07-03T05:22:25.922Z,36.38
2023-07-03T05:23:25.934Z,36.40
2023-07-03T05:24:25.933Z,36.37
2023-07-03T05:25:25.958Z,36.34
2023-07-03T05:26:25.958Z,36.31
2023-07-03T05:27:25.951Z,36.63
2023-07-03T05:28:25.961Z,37.08
2023-07-03T05:29:25.966Z,37.09
2023-07-03T05:30:26.028Z,36.80
2023-07-03T05:31:26.318Z,36.76
2023-07-03T05:32:26.042Z,36.99
2023-07-03T05:33:26.063Z,37.29
2023-07-03T05:34:26.064Z,37.41
2023-07-03T05:35:26.023Z,37.36
2023-07-03T05:36:26.071Z,38.11
2023-07-03T05:37:26.026Z,37.62
2023-07-03T05:38:26.081Z,37.59
2023-07-03T05:39:26.072Z,37.68
2023-07-03T05:40:26.095Z,37.84
2023-07-03T05:41:26.248Z,38.20
2023-07-03T05:42:26.144Z,38.63
2023-07-03T05:43:26.737Z,38.29
2023-07-03T05:44:26.114Z,38.34
2023-07-03T05:45:26.109Z,38.83
2023-07-03T05:46:26.236Z,38.76
2023-07-03T05:47:26.341Z,38.86
2023-07-03T05:48:26.143Z,38.60
2023-07-03T05:49:26.152Z,39.09
2023-07-03T05:50:26.174Z,39.78
2023-07-03T05:51:26.745Z,40.26
2023-07-03T05:52:26.324Z,39.47
2023-07-03T05:53:26.193Z,39.00
2023-07-03T05:54:26.186Z,38.82
2023-07-03T05:55:26.205Z,38.69
2023-07-03T05:56:26.225Z,38.55
2023-07-03T05:57:26.226Z,38.43
2023-07-03T05:58:26.260Z,38.51
2023-07-03T05:59:26.262Z,38.50
2023-07-03T06:00:26.264Z,38.51
2023-07-03T06:01:26.776Z,38.54
2023-07-03T06:02:26.281Z,38.56
2023-07-03T06:03:26.477Z,38.64
2023-07-03T06:04:26.296Z,38.83
2023-07-03T06:05:26.245Z,38.64
2023-07-03T06:06:26.247Z,38.57
2023-07-03T06:07:26.405Z,39.05
2023-07-03T06:08:26.381Z,38.83
2023-07-03T06:09:26.243Z,38.86
2023-07-03T06:10:26.301Z,39.27
2023-07-03T06:11:26.272Z,39.96
2023-07-03T06:12:26.275Z,39.29
2023-07-03T06:13:26.272Z,38.99
2023-07-03T06:14:26.255Z,39.07
2023-07-03T06:15:26.262Z,38.94
2023-07-03T06:16:26.311Z,38.99
2023-07-03T06:17:26.339Z,38.98
2023-07-03T06:18:26.331Z,38.74
2023-07-03T06:19:26.332Z,38.62
2023-07-03T06:20:26.326Z,38.66
2023-07-03T06:21:26.366Z,38.50
2023-07-03T06:22:26.387Z,38.40
2023-07-03T06:23:26.448Z,38.90
2023-07-03T06:24:26.504Z,39.55
2023-07-03T06:25:26.544Z,39.54
2023-07-03T06:26:26.617Z,40.12
2023-07-03T06:27:26.680Z,39.57
2023-07-03T06:28:26.719Z,39.66
2023-07-03T06:29:26.757Z,39.61
2023-07-03T06:30:26.806Z,39.90
2023-07-03T06:31:26.857Z,39.64
2023-07-03T06:32:27.005Z,39.45
2023-07-03T06:33:26.898Z,41.33
2023-07-03T06:34:26.919Z,40.55
2023-07-03T06:35:26.961Z,40.53
2023-07-03T06:36:26.960Z,40.49
2023-07-03T06:37:26.941Z,40.69
2023-07-03T06:38:26.954Z,40.53
2023-07-03T06:39:27.034Z,40.96
2023-07-03T06:40:26.988Z,40.72
2023-07-03T06:41:26.968Z,40.80
2023-07-03T06:42:28.378Z,40.50
2023-07-03T06:43:26.989Z,40.50
2023-07-03T06:44:26.999Z,40.32
2023-07-03T06:45:26.992Z,40.42
2023-07-03T06:46:27.017Z,40.39
2023-07-03T06:47:27.088Z,40.18
2023-07-03T06:48:27.036Z,40.25
2023-07-03T06:49:27.061Z,40.14
2023-07-03T06:50:27.090Z,40.13
2023-07-03T06:51:27.302Z,39.90
2023-07-03T06:52:27.167Z,39.91
2023-07-03T06:53:27.185Z,39.88
2023-07-03T06:54:27.215Z,39.89
2023-07-03T06:55:27.367Z,39.79
2023-07-03T06:56:27.771Z,39.78
2023-07-03T06:57:27.346Z,39.88
2023-07-03T06:58:27.415Z,39.81
2023-07-03T06:59:27.470Z,39.51
2023-07-03T07:00:27.529Z,39.58
2023-07-03T07:01:27.565Z,39.80
2023-07-03T07:02:27.718Z,39.85
2023-07-03T07:03:27.769Z,39.80
2023-07-03T07:04:29.525Z,39.74
2023-07-03T07:05:27.815Z,39.60
2023-07-03T07:06:27.836Z,39.58
2023-07-03T07:07:27.847Z,39.44
2023-07-03T07:08:27.938Z,39.45
2023-07-03T07:09:27.963Z,39.55
2023-07-03T07:10:28.034Z,39.58
2023-07-03T07:11:28.184Z,39.45
2023-07-03T07:12:28.156Z,39.53
2023-07-03T07:13:28.235Z,39.31
2023-07-03T07:14:28.276Z,39.30
2023-07-03T07:15:28.335Z,39.38
2023-07-03T07:16:28.445Z,39.25
2023-07-03T07:17:42.055Z,39.08
2023-07-03T07:18:29.469Z,39.01
2023-07-03T07:19:28.482Z,38.92
2023-07-03T07:20:28.447Z,38.84
2023-07-03T07:21:28.441Z,38.62
2023-07-03T07:22:28.450Z,38.53
2023-07-03T07:23:28.431Z,38.51
2023-07-03T07:24:28.427Z,38.52
2023-07-03T07:25:28.396Z,38.45
2023-07-03T07:26:28.425Z,38.39
2023-07-03T07:27:28.501Z,38.37
2023-07-03T07:28:28.506Z,38.14
2023-07-03T07:29:28.526Z,38.00
2023-07-03T07:30:28.618Z,38.05
2023-07-03T07:31:28.601Z,37.93
2023-07-03T07:32:28.618Z,37.93
2023-07-03T07:33:28.630Z,38.77
2023-07-03T07:34:28.605Z,38.46
2023-07-03T07:35:28.580Z,38.91
2023-07-03T07:36:28.665Z,37.57
2023-07-03T07:37:28.602Z,37.95
2023-07-03T07:38:28.590Z,37.85
2023-07-03T07:39:28.600Z,37.81
2023-07-03T07:40:28.588Z,38.42
2023-07-03T07:41:28.620Z,37.65
2023-07-03T07:42:28.595Z,37.46
2023-07-03T07:43:28.722Z,37.53
2023-07-03T07:44:28.658Z,37.05
2023-07-03T07:45:28.598Z,36.67
2023-07-03T07:46:28.629Z,36.78
2023-07-03T07:47:28.661Z,37.01
2023-07-03T07:48:29.973Z,36.96
2023-07-03T07:49:28.637Z,36.51
2023-07-03T07:50:28.688Z,36.61
2023-07-03T07:51:28.609Z,36.31
2023-07-03T07:52:28.605Z,36.29
2023-07-03T07:53:28.580Z,36.20
2023-07-03T07:54:28.573Z,36.07
2023-07-03T07:55:28.575Z,36.07
2023-07-03T07:56:29.828Z,35.86
2023-07-03T07:57:28.548Z,35.84
2023-07-03T07:58:28.560Z,35.70
2023-07-03T07:59:28.610Z,35.46
2023-07-03T08:00:28.730Z,35.28
2023-07-03T08:01:28.635Z,35.29
2023-07-03T08:02:28.640Z,35.19
2023-07-03T08:03:28.718Z,35.27
2023-07-03T08:04:28.604Z,35.38
2023-07-03T08:05:28.567Z,35.56
2023-07-03T08:06:28.538Z,35.33
2023-07-03T08:07:28.526Z,35.25
2023-07-03T08:08:28.477Z,35.30
2023-07-03T08:09:28.462Z,34.89
2023-07-03T08:10:29.318Z,34.75
2023-07-03T08:11:28.504Z,34.97
2023-07-03T08:12:28.463Z,34.50
2023-07-03T08:13:28.456Z,34.63
2023-07-03T08:14:28.465Z,34.59
2023-07-03T08:15:28.534Z,34.43
2023-07-03T08:16:28.532Z,34.27
2023-07-03T08:17:28.454Z,34.44
2023-07-03T08:18:28.429Z,34.29
2023-07-03T08:19:28.444Z,34.32
2023-07-03T08:20:28.406Z,34.46
2023-07-03T08:21:28.430Z,34.01
2023-07-03T08:22:28.394Z,34.04
2023-07-03T08:23:28.416Z,33.95
2023-07-03T08:24:28.392Z,33.75
2023-07-03T08:25:28.379Z,33.47
2023-07-03T08:26:28.392Z,33.47
2023-07-03T08:27:28.365Z,33.40
2023-07-03T08:28:28.368Z,33.27
2023-07-03T08:29:28.404Z,33.12
2023-07-03T08:30:28.389Z,33.15
2023-07-03T08:31:28.533Z,32.79
2023-07-03T08:32:28.343Z,32.90
2023-07-03T08:33:28.388Z,32.51
2023-07-03T08:34:28.328Z,32.59
2023-07-03T08:37:28.307Z,32.25
2023-07-03T08:38:28.301Z,32.11
2023-07-03T08:39:28.295Z,31.88
2023-07-03T08:40:28.275Z,31.98
2023-07-03T08:41:28.300Z,31.96
2023-07-03T08:42:28.273Z,32.64
2023-07-03T08:43:28.260Z,31.81
2023-07-03T08:44:28.257Z,32.30
2023-07-03T08:45:28.277Z,33.24
2023-07-03T08:46:28.330Z,33.64
2023-07-03T08:47:28.422Z,33.98
2023-07-03T08:48:28.240Z,33.80
2023-07-03T08:49:28.267Z,34.23
2023-07-03T08:50:36.991Z,34.29
2023-07-03T08:51:29.442Z,34.43
2023-07-03T08:52:28.215Z,34.12
2023-07-03T08:53:28.225Z,34.10
2023-07-03T08:54:28.183Z,34.21
2023-07-03T08:55:28.204Z,34.55
2023-07-03T08:56:28.184Z,33.25
2023-07-03T08:57:28.163Z,33.85
2023-07-03T08:58:28.165Z,34.14
2023-07-03T08:59:28.163Z,34.29
2023-07-03T09:00:28.148Z,34.20
2023-07-03T09:01:28.185Z,34.67
2023-07-03T09:02:28.254Z,34.67
2023-07-03T09:03:28.268Z,34.62
2023-07-03T09:04:28.171Z,35.06
2023-07-03T09:05:28.110Z,35.08
2023-07-03T09:06:28.100Z,35.03
2023-07-03T09:07:28.123Z,35.02
2023-07-03T09:08:28.089Z,35.01
2023-07-03T09:09:28.081Z,35.11
2023-07-03T09:10:28.086Z,34.83
2023-07-03T09:11:28.347Z,34.64
2023-07-03T09:12:28.068Z,34.87
2023-07-03T09:13:28.068Z,34.68
2023-07-03T09:14:28.064Z,34.50
2023-07-03T09:15:28.131Z,34.59
2023-07-03T09:16:28.200Z,34.51
2023-07-03T09:17:28.236Z,34.52
2023-07-03T09:18:28.231Z,34.41
2023-07-03T09:19:28.521Z,34.44
2023-07-03T09:20:28.289Z,34.41
2023-07-03T09:21:28.356Z,34.48
2023-07-03T09:22:28.403Z,34.51
2023-07-03T09:23:28.473Z,34.58
2023-07-03T09:24:28.538Z,34.63
2023-07-03T09:25:28.644Z,34.66
2023-07-03T09:26:28.787Z,34.85
2023-07-03T09:27:28.709Z,34.75
2023-07-03T09:28:28.765Z,35.14
2023-07-03T09:29:28.814Z,35.00
2023-07-03T09:30:28.858Z,34.99
2023-07-03T09:31:29.467Z,34.99
2023-07-03T09:32:29.040Z,35.01
2023-07-03T09:33:29.003Z,34.95
2023-07-03T09:34:29.035Z,34.81
2023-07-03T09:35:29.112Z,34.77
2023-07-03T09:36:29.081Z,34.83
2023-07-03T09:37:29.093Z,34.72
2023-07-03T09:38:29.134Z,34.72
2023-07-03T09:39:29.143Z,34.71
2023-07-03T09:40:29.569Z,34.74
2023-07-03T09:41:29.265Z,34.74
2023-07-03T09:42:29.314Z,34.75
2023-07-03T09:43:29.529Z,34.70
2023-07-03T09:44:29.297Z,34.73
2023-07-03T09:45:29.326Z,34.82
2023-07-03T09:46:29.359Z,34.79
2023-07-03T09:47:29.428Z,34.78
2023-07-03T09:48:29.428Z,34.78
2023-07-03T09:49:29.526Z,34.76
2023-07-03T09:50:29.468Z,34.82
2023-07-03T09:51:29.584Z,34.81
2023-07-03T09:52:29.534Z,34.83
2023-07-03T09:53:29.571Z,34.76
2023-07-03T09:54:29.608Z,34.83
2023-07-03T09:55:29.640Z,34.84
2023-07-03T09:56:29.672Z,34.79
2023-07-03T09:57:29.715Z,34.65
2023-07-03T09:58:29.754Z,34.62
2023-07-03T09:59:29.784Z,34.68
2023-07-03T10:00:29.941Z,34.68
2023-07-03T10:03:30.575Z,34.68
2023-07-03T10:06:29.826Z,34.69
2023-07-03T10:07:29.895Z,34.63
2023-07-03T10:08:30.698Z,34.62
2023-07-03T10:11:29.814Z,34.67
2023-07-03T10:12:29.854Z,34.58
2023-07-03T10:13:29.780Z,34.60
2023-07-03T10:14:29.792Z,34.60
2023-07-03T10:15:29.762Z,34.47
2023-07-03T10:16:29.742Z,34.55
2023-07-03T10:17:29.826Z,34.49
2023-07-03T10:18:29.739Z,34.45
2023-07-03T10:19:29.715Z,34.65
2023-07-03T10:20:29.744Z,34.47
2023-07-03T10:21:29.750Z,34.54
2023-07-03T10:22:29.703Z,34.59
2023-07-03T10:23:29.847Z,34.53
2023-07-03T10:24:29.686Z,34.52
2023-07-03T10:25:29.685Z,34.51
2023-07-03T10:26:29.673Z,34.44
2023-07-03T10:27:29.668Z,34.43
2023-07-03T10:28:29.665Z,34.47
2023-07-03T10:29:29.671Z,34.45
2023-07-03T10:30:29.671Z,34.48
2023-07-03T10:31:29.658Z,34.49
2023-07-03T10:32:29.676Z,34.44
2023-07-03T10:33:29.651Z,34.52
2023-07-03T10:34:29.623Z,34.49
2023-07-03T10:35:29.604Z,34.47
2023-07-03T10:36:29.604Z,34.52
2023-07-03T10:37:29.604Z,34.49
2023-07-03T10:38:29.609Z,34.57
2023-07-03T10:39:30.976Z,34.56
2023-07-03T10:40:29.577Z,34.52
2023-07-03T10:41:29.577Z,34.48
2023-07-03T10:42:29.582Z,34.40
2023-07-03T10:43:29.565Z,34.38
2023-07-03T10:44:29.544Z,34.38
2023-07-03T10:45:29.548Z,34.43
2023-07-03T10:46:29.597Z,34.59
2023-07-03T10:47:29.563Z,34.72
2023-07-03T10:48:29.543Z,34.47
2023-07-03T10:49:29.518Z,34.41
2023-07-03T10:50:29.553Z,34.52
2023-07-03T10:51:29.585Z,34.54
2023-07-03T10:52:29.612Z,34.47
2023-07-03T10:53:29.661Z,34.47
2023-07-03T10:54:29.678Z,34.47
2023-07-03T10:55:29.793Z,34.55
2023-07-03T10:56:29.753Z,34.63
2023-07-03T10:57:29.818Z,34.72
2023-07-03T10:58:29.841Z,34.72
2023-07-03T10:59:29.859Z,34.78
2023-07-03T11:00:29.890Z,34.79
2023-07-03T11:01:29.961Z,34.79
2023-07-03T11:02:29.978Z,34.81
2023-07-03T11:03:30.061Z,34.84
2023-07-03T11:04:30.067Z,34.77
2023-07-03T11:05:30.079Z,34.71
2023-07-03T11:06:30.109Z,34.73
2023-07-03T11:07:30.171Z,34.79
2023-07-03T11:08:30.186Z,34.84
2023-07-03T11:09:30.234Z,34.77
2023-07-03T11:10:30.266Z,34.81
2023-07-03T11:11:30.472Z,34.72
2023-07-03T11:12:30.360Z,34.62
2023-07-03T11:13:30.412Z,34.65
2023-07-03T11:14:30.401Z,34.67
2023-07-03T11:15:30.432Z,34.75
2023-07-03T11:16:30.516Z,34.76
2023-07-03T11:17:30.529Z,34.62
2023-07-03T11:23:30.577Z,34.55
2023-07-03T11:24:30.529Z,34.52
2023-07-03T11:25:30.526Z,34.44
2023-07-03T11:28:30.513Z,34.51
2023-07-03T11:29:30.476Z,34.56
2023-07-03T11:30:30.472Z,34.59
2023-07-03T11:31:30.524Z,34.57
2023-07-03T11:32:30.476Z,34.60
2023-07-03T11:36:37.862Z,34.52
2023-07-03T11:40:30.446Z,34.36
2023-07-03T11:43:30.393Z,34.27
2023-07-03T11:44:30.385Z,34.23
2023-07-03T11:45:30.367Z,34.20
2023-07-03T11:46:30.408Z,34.27
2023-07-03T11:47:30.357Z,34.27
2023-07-03T11:48:30.351Z,34.21
2023-07-03T11:49:30.343Z,34.40
2023-07-03T11:50:30.357Z,34.27
2023-07-03T11:51:30.343Z,34.24
2023-07-03T11:52:30.358Z,34.21
2023-07-03T11:53:30.335Z,34.21
2023-07-03T11:54:30.336Z,34.28
2023-07-03T11:55:30.337Z,34.23
2023-07-03T11:56:30.318Z,34.20
2023-07-03T11:57:30.306Z,34.17
2023-07-03T11:58:30.299Z,34.16
2023-07-03T11:59:30.321Z,34.17
2023-07-03T12:00:30.338Z,34.21
2023-07-03T12:01:30.331Z,34.25
2023-07-03T12:02:30.310Z,34.20
2023-07-03T12:03:30.310Z,34.28
2023-07-03T12:04:30.262Z,34.27
2023-07-03T12:05:30.251Z,34.25
2023-07-03T12:06:30.250Z,34.21
2023-07-03T12:07:30.248Z,34.28
2023-07-03T12:08:30.228Z,34.31
2023-07-03T12:09:30.223Z,34.31
2023-07-03T12:10:30.225Z,34.32
2023-07-03T12:11:30.220Z,34.24
2023-07-03T12:12:30.214Z,34.23
2023-07-03T12:13:30.238Z,34.24
2023-07-03T12:14:30.189Z,34.36
2023-07-03T12:15:30.187Z,34.40
2023-07-03T12:16:30.237Z,34.40
2023-07-03T12:17:30.208Z,34.41
2023-07-03T12:18:30.166Z,34.44
2023-07-03T12:19:30.168Z,34.38
2023-07-03T12:20:30.149Z,34.47
2023-07-03T12:21:30.134Z,34.48
2023-07-03T12:22:30.149Z,34.44
2023-07-03T12:23:30.141Z,34.43
2023-07-03T12:24:30.137Z,34.47
2023-07-03T12:25:30.138Z,34.43
2023-07-03T12:26:30.118Z,34.40
2023-07-03T12:27:30.111Z,34.31
2023-07-03T12:28:30.095Z,34.33
2023-07-03T12:29:30.093Z,34.23
2023-07-03T12:30:30.108Z,34.29
2023-07-03T12:31:30.140Z,34.33
2023-07-03T12:32:30.091Z,34.29
2023-07-03T12:33:30.067Z,34.32
2023-07-03T12:34:30.073Z,34.28
2023-07-03T12:35:30.054Z,34.28
2023-07-03T12:36:32.177Z,34.25
2023-07-03T12:37:30.046Z,34.25
2023-07-03T12:38:30.033Z,34.23
2023-07-03T12:39:30.022Z,34.20
2023-07-03T12:40:30.034Z,34.14
2023-07-03T12:41:30.027Z,34.10
2023-07-03T12:42:30.004Z,34.19
2023-07-03T12:43:30.003Z,34.08
2023-07-03T12:44:30.024Z,34.11
2023-07-03T12:45:29.998Z,34.17
2023-07-03T12:46:30.032Z,34.24
2023-07-03T12:47:29.997Z,34.29
2023-07-03T12:48:29.968Z,34.31
2023-07-03T12:49:29.967Z,34.28
2023-07-03T12:50:29.966Z,34.27
2023-07-03T12:51:29.959Z,34.31
2023-07-03T12:52:29.945Z,34.36
2023-07-03T12:53:29.932Z,34.31
2023-07-03T12:54:29.925Z,34.28
2023-07-03T12:55:29.938Z,34.31
2023-07-03T12:56:29.927Z,34.36
2023-07-03T12:57:29.945Z,34.39
2023-07-03T12:58:29.917Z,34.36
2023-07-03T12:59:29.898Z,34.32
2023-07-03T13:00:29.927Z,34.23
2023-07-03T13:01:29.892Z,34.13
2023-07-03T13:02:29.907Z,34.09
2023-07-03T13:03:29.876Z,34.17
2023-07-03T13:04:29.890Z,34.16
2023-07-03T13:05:29.946Z,34.16
2023-07-03T13:06:29.858Z,34.20
2023-07-03T13:07:29.891Z,34.20
2023-07-03T13:08:29.854Z,34.10
2023-07-03T13:09:29.901Z,34.14
2023-07-03T13:10:29.832Z,34.14
2023-07-03T13:11:29.829Z,34.10
2023-07-03T13:12:29.847Z,34.13
2023-07-03T13:13:29.851Z,34.13
2023-07-03T13:14:29.856Z,34.19
2023-07-03T13:15:29.821Z,34.14
2023-07-03T13:16:29.834Z,34.14